Time;durP1;ratioP1;P1;durP2;ratioP2;P2;SDS_P1;SDS_P2;PMS_P1;PMS_P2;Temp;Humidity;BMP_temperature;BMP_pressure;BME280_temperature;BME280_humidity;BME280_pressure;Samples;Min_cycle;Max_cycle;Signal;HPM_P1;HPM_P2
2022/12/12 00:00:13;;;;;;;29.37;11.05;;;;;;;-2.83;100.00;97419.78;4195531;34;20047;-73
2022/12/12 00:03:00;;;;;;;27.30;11.65;;;;;;;-2.60;100.00;97417.53;4203626;34;20089;-72
2022/12/12 00:05:26;;;;;;;33.25;12.43;;;;;;;-2.80;100.00;97422.81;4204893;34;20063;-72
2022/12/12 00:07:53;;;;;;;27.85;10.55;;;;;;;-2.81;100.00;97423.84;4231587;33;20062;-72
2022/12/12 00:10:20;;;;;;;32.30;12.43;;;;;;;-2.63;100.00;97425.03;4239108;33;20376;-72
2022/12/12 00:12:46;;;;;;;25.88;10.80;;;;;;;-2.62;100.00;97429.28;4240022;33;20058;-72
2022/12/12 00:15:13;;;;;;;23.33;9.65;;;;;;;-2.97;100.00;97393.44;4252391;33;20111;-72
2022/12/12 00:17:39;;;;;;;25.30;11.52;;;;;;;-2.96;100.00;97410.84;4253566;33;20042;-72
2022/12/12 00:20:06;;;;;;;29.30;12.10;;;;;;;-2.92;100.00;97377.84;4253542;33;20034;-72
2022/12/12 00:22:32;;;;;;;29.60;11.93;;;;;;;-2.54;100.00;97418.53;4253076;33;20396;-71
2022/12/12 00:24:59;;;;;;;22.45;9.80;;;;;;;-2.64;100.00;97413.66;4252080;33;20090;-70
2022/12/12 00:27:25;;;;;;;24.60;10.32;;;;;;;-2.56;100.00;97413.44;4252233;33;20064;-72
2022/12/12 00:29:53;;;;;;;23.17;11.15;;;;;;;-2.92;100.00;97366.47;4252375;33;20199;-71
2022/12/12 00:32:19;;;;;;;22.42;10.20;;;;;;;-2.65;100.00;97385.72;4252905;33;20104;-72
2022/12/12 00:34:46;;;;;;;27.30;10.63;;;;;;;-2.65;100.00;97401.53;4252447;33;20099;-71
2022/12/12 00:37:12;;;;;;;29.08;10.98;;;;;;;-2.48;100.00;97406.34;4251282;33;20043;-72
2022/12/12 00:39:41;;;;;;;23.83;10.32;;;;;;;-2.57;100.00;97403.94;4253332;33;20648;-72
2022/12/12 00:42:08;;;;;;;23.83;12.07;;;;;;;-2.48;100.00;97403.72;4255565;33;20083;-71
2022/12/12 00:44:35;;;;;;;25.65;10.60;;;;;;;-2.65;100.00;97369.09;4252037;33;20058;-72
2022/12/12 00:47:01;;;;;;;29.17;10.65;;;;;;;-2.78;100.00;97354.09;4251182;33;20504;-71
2022/12/12 00:49:29;;;;;;;25.02;10.82;;;;;;;-2.65;100.00;97406.81;4251894;33;20089;-72
2022/12/12 00:51:55;;;;;;;24.08;10.23;;;;;;;-2.54;100.00;97412.44;4253067;33;20030;-72
2022/12/12 00:54:22;;;;;;;21.05;8.93;;;;;;;-2.53;100.00;97409.59;4253432;33;20508;-72
2022/12/12 00:56:48;;;;;;;20.25;9.77;;;;;;;-2.48;100.00;97406.34;4252267;33;20103;-72
2022/12/12 00:59:15;;;;;;;23.67;9.98;;;;;;;-2.38;100.00;97396.19;4249545;33;20070;-72
2022/12/12 03:09:32;;;;;;;19.98;8.13;;;;;;;-1.52;100.00;97389.72;4240652;33;20052;-72
2022/12/12 03:12:10;;;;;;;18.77;8.23;;;;;;;-1.57;100.00;97389.56;4239978;33;20046;-72
2022/12/12 03:14:51;;;;;;;25.33;8.48;;;;;;;-1.47;100.00;97375.91;4221600;34;20039;-71
2022/12/12 03:17:50;;;;;;;14.00;7.28;;;;;;;-1.57;100.00;97391.41;4227520;33;20381;-71
2022/12/12 03:20:27;;;;;;;18.98;8.70;;;;;;;-1.81;100.00;97380.56;4227392;33;20038;-72
2022/12/12 03:23:04;;;;;;;20.83;8.45;;;;;;;-1.56;100.00;97377.19;4218287;34;20038;-73
2022/12/12 03:25:46;;;;;;;15.13;8.07;;;;;;;-1.73;100.00;97382.16;4224088;34;20068;-72
2022/12/12 03:28:22;;;;;;;24.58;8.50;;;;;;;-1.77;100.00;97344.00;4223730;34;20505;-72
2022/12/12 03:30:54;;;;;;;12.20;6.90;;;;;;;-1.46;100.00;97388.88;4196314;34;20043;-72
2022/12/12 03:33:30;;;;;;;16.15;8.90;;;;;;;-1.78;100.00;97384.63;4194908;34;20093;-72
2022/12/12 03:36:09;;;;;;;21.02;8.98;;;;;;;-1.54;100.00;97381.22;4207279;34;20068;-73
2022/12/12 03:38:40;;;;;;;22.77;9.75;;;;;;;-1.81;100.00;97356.81;4208436;34;20051;-73
2022/12/12 03:41:14;;;;;;;19.75;8.57;;;;;;;-1.51;100.00;97375.53;4207937;34;20448;-72
2022/12/12 03:43:48;;;;;;;22.33;9.30;;;;;;;-1.64;100.00;97386.16;4207722;34;20078;-73
2022/12/12 03:46:18;;;;;;;21.30;9.52;;;;;;;-1.66;100.00;97380.28;4206538;34;20177;-73
2022/12/12 03:48:59;;;;;;;23.87;10.52;;;;;;;-1.65;100.00;97368.72;4209268;34;20051;-73
2022/12/12 03:51:31;;;;;;;16.87;9.15;;;;;;;-1.47;100.00;97386.47;4210061;34;20058;-72
2022/12/12 03:54:12;;;;;;;19.27;9.80;;;;;;;-1.49;100.00;97381.41;4195808;34;20122;-72
2022/12/12 03:56:50;;;;;;;15.55;7.37;;;;;;;-1.30;100.00;97386.78;4181015;34;20040;-72
2022/12/12 03:59:23;;;;;;;19.77;9.27;;;;;;;-1.63;100.00;97387.78;4182235;34;20216;-72
2022/12/12 04:01:59;;;;;;;16.05;8.07;;;;;;;-1.74;100.00;97343.59;4179303;34;20434;-72
2022/12/12 04:04:53;;;;;;;17.75;7.47;;;;;;;-1.33;100.00;97377.44;4201639;34;20327;-71
2022/12/12 04:07:25;;;;;;;20.33;8.63;;;;;;;-1.25;100.00;97375.56;4218914;33;20057;-73
2022/12/12 04:15:25;;;;;;;17.58;9.00;;;;;;;-1.31;100.00;97377.22;4210738;34;20044;-71
2022/12/12 04:18:08;;;;;;;22.52;10.45;;;;;;;-1.69;100.00;97335.84;4211296;34;20140;-72
2022/12/12 04:23:45;;;;;;;16.80;9.18;;;;;;;-1.27;100.00;97378.41;4212061;34;20031;-72
2022/12/12 04:29:13;;;;;;;20.10;8.00;;;;;;;-1.23;100.00;97374.31;4247483;33;20080;-72
2022/12/12 04:31:46;;;;;;;13.30;8.07;;;;;;;-1.43;100.00;97363.09;4244130;33;20158;-72
2022/12/12 04:34:41;;;;;;;17.00;8.68;;;;;;;-1.39;100.00;97369.56;4244041;33;20076;-72
2022/12/12 04:37:12;;;;;;;18.40;8.60;;;;;;;-1.40;100.00;97363.47;4250257;33;20108;-72
2022/12/12 04:39:41;;;;;;;16.73;7.95;;;;;;;-1.48;100.00;97363.75;4212046;34;20092;-72
2022/12/12 04:42:12;;;;;;;17.40;7.78;;;;;;;-1.36;100.00;97366.50;4209296;34;20096;-71
2022/12/12 04:44:41;;;;;;;17.23;7.97;;;;;;;-1.64;100.00;97365.06;4212147;34;20051;-72
2022/12/12 04:47:12;;;;;;;18.42;9.27;;;;;;;-1.76;100.00;97364.09;4198108;34;20310;-73
2022/12/12 04:49:42;;;;;;;11.43;7.07;;;;;;;-1.46;100.00;97375.69;4198088;34;20478;-73
2022/12/12 04:52:12;;;;;;;15.13;8.02;;;;;;;-1.70;100.00;97336.88;4196394;34;20142;-72
2022/12/12 04:54:56;;;;;;;16.67;7.25;;;;;;;-1.43;100.00;97365.75;4197950;34;20076;-72
2022/12/12 04:57:32;;;;;;;20.25;8.23;;;;;;;-1.75;100.00;97363.09;4170521;34;20056;-72
2022/12/12 04:59:59;;;;;;;22.67;9.02;;;;;;;-1.43;100.00;97360.47;4168870;34;20066;-72
2022/12/12 05:02:36;;;;;;;19.02;8.32;;;;;;;-1.92;100.00;97333.75;4179283;34;20077;-73
2022/12/12 05:05:10;;;;;;;17.15;7.72;;;;;;;-1.56;100.00;97371.91;4184018;34;20062;-72
2022/12/12 05:07:41;;;;;;;12.48;7.22;;;;;;;-1.63;100.00;97369.28;4171918;34;20057;-72
2022/12/12 05:10:16;;;;;;;11.85;6.37;;;;;;;-1.90;100.00;97371.25;4190817;34;20074;-72
2022/12/12 05:12:57;;;;;;;24.48;7.90;;;;;;;-1.89;100.00;97344.69;4225152;34;20042;-72
2022/12/12 05:15:26;;;;;;;15.33;8.73;;;;;;;-1.67;100.00;97368.91;4224487;34;20054;-72
2022/12/12 05:18:00;;;;;;;18.02;8.48;;;;;;;-1.76;100.00;97369.38;4225559;34;20050;-72
2022/12/12 05:20:26;;;;;;;17.20;7.82;;;;;;;-1.95;100.00;97311.22;4225548;33;20060;-72
2022/12/12 05:22:53;;;;;;;16.70;8.52;;;;;;;-1.73;100.00;97367.12;4223719;34;20043;-72
2022/12/12 05:25:19;;;;;;;15.25;7.80;;;;;;;-1.90;100.00;97335.16;4209458;34;20035;-72
2022/12/12 05:27:46;;;;;;;15.60;6.95;;;;;;;-1.59;100.00;97346.75;4215670;33;20963;-72
2022/12/12 05:30:13;;;;;;;21.75;9.43;;;;;;;-1.65;100.00;97342.31;4238984;33;20063;-72
2022/12/12 05:32:39;;;;;;;15.50;7.57;;;;;;;-1.59;100.00;97357.31;4239133;33;20104;-72
2022/12/12 05:35:06;;;;;;;23.80;8.82;;;;;;;-1.52;100.00;97358.06;4239405;33;20163;-72
2022/12/12 05:37:33;;;;;;;24.10;8.20;;;;;;;-1.88;100.00;97367.41;4236596;33;20413;-72
2022/12/12 05:39:59;;;;;;;21.75;8.13;;;;;;;-1.76;100.00;97324.53;4239369;33;20068;-72
2022/12/12 05:42:26;;;;;;;17.73;8.32;;;;;;;-1.61;100.00;97375.19;4237445;33;20065;-72
2022/12/12 05:44:52;;;;;;;15.80;7.87;;;;;;;-1.59;100.00;97359.94;4237849;33;20034;-72
2022/12/12 05:47:18;;;;;;;13.82;7.00;;;;;;;-1.87;100.00;97326.00;4240508;33;20091;-72
2022/12/12 05:49:45;;;;;;;13.05;7.20;;;;;;;-1.57;100.00;97360.53;4238250;33;20030;-71
2022/12/12 05:52:12;;;;;;;18.27;8.95;;;;;;;-1.67;100.00;97328.53;4216912;34;20069;-72
2022/12/12 05:54:39;;;;;;;25.33;8.55;;;;;;;-1.56;100.00;97358.72;4217324;34;20085;-72
2022/12/12 05:57:06;;;;;;;17.10;8.07;;;;;;;-1.33;100.00;97366.06;4224871;34;20393;-73
2022/12/12 05:59:34;;;;;;;14.10;8.55;;;;;;;-1.25;100.00;97362.38;4225110;34;20057;-72
2022/12/12 06:02:00;;;;;;;17.73;8.40;;;;;;;-1.71;100.00;97364.28;4222062;33;20075;-71
2022/12/12 06:04:26;;;;;;;17.00;7.85;;;;;;;-1.61;100.00;97358.53;4238837;33;20055;-71
2022/12/12 06:06:53;;;;;;;14.82;7.75;;;;;;;-2.04;100.00;97323.06;4238861;33;20323;-71
2022/12/12 06:09:19;;;;;;;15.18;7.55;;;;;;;-1.92;100.00;97353.00;4238187;33;20073;-71
2022/12/12 06:11:46;;;;;;;18.00;9.00;;;;;;;-1.88;100.00;97327.84;4236002;33;20365;-71
2022/12/12 06:14:12;;;;;;;7.07;3.80;;;;;;;-1.91;100.00;97328.25;4237940;33;20089;-71
2022/12/12 06:16:39;;;;;;;17.23;8.80;;;;;;;-1.92;100.00;97358.28;4238845;33;20030;-71
2022/12/12 06:19:06;;;;;;;19.25;8.63;;;;;;;-1.81;100.00;97359.47;4239152;33;20035;-72
2022/12/12 06:21:32;;;;;;;12.88;6.95;;;;;;;-1.90;100.00;97339.59;4238314;33;20087;-72
2022/12/12 06:23:58;;;;;;;13.88;8.35;;;;;;;-1.94;100.00;97320.75;4248206;33;20074;-72
2022/12/12 06:26:25;;;;;;;16.00;7.85;;;;;;;-1.90;100.00;97345.72;4254478;33;20053;-72
2022/12/12 06:28:51;;;;;;;18.33;8.75;;;;;;;-1.66;100.00;97367.06;4255099;33;20046;-72
2022/12/12 06:31:18;;;;;;;16.90;7.20;;;;;;;-1.80;100.00;97339.16;4254962;33;20079;-72
2022/12/12 06:33:44;;;;;;;20.05;7.15;;;;;;;-1.71;100.00;97375.66;4253675;33;20441;-71
2022/12/12 06:36:22;;;;;;;14.65;8.35;;;;;;;-1.97;100.00;97313.28;4223768;33;20039;-72
2022/12/12 06:38:54;;;;;;;16.12;8.35;;;;;;;-1.40;100.00;97379.31;4225629;33;20092;-72
2022/12/12 06:41:21;;;;;;;16.33;7.70;;;;;;;-1.49;100.00;97378.75;4208950;34;20455;-72
2022/12/12 06:43:48;;;;;;;16.58;7.35;;;;;;;-1.60;100.00;97376.00;4208540;34;20104;-72
2022/12/12 06:46:18;;;;;;;20.52;9.10;;;;;;;-1.68;100.00;97363.84;4199212;34;20355;-72
2022/12/12 06:48:45;;;;;;;15.60;7.37;;;;;;;-1.63;100.00;97345.53;4196380;34;20043;-73
2022/12/12 06:51:19;;;;;;;14.45;8.02;;;;;;;-1.50;100.00;97366.59;4181940;34;20374;-73
2022/12/12 06:53:52;;;;;;;15.35;7.47;;;;;;;-1.52;100.00;97344.06;4175384;34;20052;-73
2022/12/12 06:56:21;;;;;;;13.27;6.37;;;;;;;-1.87;100.00;97334.75;4180266;34;20112;-72
2022/12/12 06:58:49;;;;;;;15.43;7.78;;;;;;;-1.58;100.00;97371.31;4181872;34;20468;-73
2022/12/12 07:01:18;;;;;;;15.13;8.10;;;;;;;-1.42;100.00;97373.47;4183681;34;20073;-72
2022/12/12 07:03:46;;;;;;;14.75;8.38;;;;;;;-1.23;100.00;97371.66;4192950;34;20118;-72
2022/12/12 07:06:12;;;;;;;13.00;7.00;;;;;;;-1.47;100.00;97344.22;4196573;34;20053;-71
2022/12/12 07:08:39;;;;;;;20.35;7.47;;;;;;;-1.28;100.00;97384.72;4209337;34;20082;-71
2022/12/12 07:11:12;;;;;;;15.30;6.65;;;;;;;-1.38;100.00;97379.91;4206497;34;20392;-71
2022/12/12 07:13:38;;;;;;;19.35;7.80;;;;;;;-1.29;100.00;97351.44;4223445;34;20043;-71
2022/12/12 07:16:06;;;;;;;14.55;7.07;;;;;;;-1.41;100.00;97384.81;4224083;34;20089;-72
2022/12/12 07:18:33;;;;;;;15.18;7.47;;;;;;;-1.22;100.00;97394.44;4223899;34;20039;-71
2022/12/12 07:21:04;;;;;;;11.65;6.12;;;;;;;-1.31;100.00;97395.69;4224000;34;20061;-72
2022/12/12 07:23:31;;;;;;;10.93;7.50;;;;;;;-1.21;100.00;97390.78;4180251;34;20903;-72
2022/12/12 07:25:58;;;;;;;15.60;6.90;;;;;;;-1.58;100.00;97335.19;4181163;34;20028;-72
2022/12/12 07:28:24;;;;;;;18.77;7.35;;;;;;;-1.39;100.00;97393.31;4182068;34;20071;-72
2022/12/12 07:30:51;;;;;;;12.90;6.30;;;;;;;-1.49;100.00;97362.91;4182241;34;20043;-72
2022/12/12 07:33:24;;;;;;;16.02;7.45;;;;;;;-1.38;100.00;97379.13;4181070;34;20192;-72
2022/12/12 07:35:50;;;;;;;14.57;8.30;;;;;;;-1.32;100.00;97388.81;4181995;34;20052;-72
2022/12/12 07:38:17;;;;;;;14.55;7.25;;;;;;;-1.07;100.00;97385.38;4181416;34;20032;-72
2022/12/12 07:40:43;;;;;;;12.45;7.03;;;;;;;-1.25;100.00;97344.69;4184424;34;20041;-73
2022/12/12 07:43:10;;;;;;;15.35;7.30;;;;;;;-1.18;100.00;97390.34;4206998;34;20076;-72
2022/12/12 07:45:36;;;;;;;16.90;7.43;;;;;;;-1.16;100.00;97383.00;4199333;34;20093;-72
2022/12/12 07:48:03;;;;;;;14.10;6.65;;;;;;;-1.26;100.00;97380.06;4192975;34;20170;-73
2022/12/12 07:50:29;;;;;;;16.35;6.30;;;;;;;-1.32;100.00;97402.03;4189276;34;20039;-73
2022/12/12 07:52:56;;;;;;;14.32;7.07;;;;;;;-1.19;100.00;97399.28;4193854;34;20168;-73
2022/12/12 07:55:22;;;;;;;13.05;6.75;;;;;;;-1.15;100.00;97382.00;4191838;34;20086;-73
2022/12/12 07:57:49;;;;;;;11.48;6.70;;;;;;;-1.16;100.00;97383.00;4174634;34;20079;-73
2022/12/12 08:00:16;;;;;;;14.85;8.30;;;;;;;-1.02;100.00;97401.37;4185266;34;20350;-73
2022/12/12 08:02:42;;;;;;;9.57;5.93;;;;;;;-0.94;100.00;97394.03;4200539;34;20047;-74
2022/12/12 08:05:09;;;;;;;11.73;6.62;;;;;;;-1.07;100.00;97386.19;4205588;34;20211;-74
2022/12/12 08:07:35;;;;;;;15.07;7.35;;;;;;;-0.95;100.00;97410.88;4206453;34;20065;-71
2022/12/12 08:10:03;;;;;;;11.98;6.97;;;;;;;-0.98;100.00;97413.16;4202530;34;20767;-74
2022/12/12 08:12:30;;;;;;;10.63;4.43;;;;;;;-0.99;100.00;97399.16;4208863;34;20067;-73
2022/12/12 08:14:56;;;;;;;13.57;7.32;;;;;;;-0.89;100.00;97403.94;4208393;34;20031;-72
2022/12/12 08:17:23;;;;;;;13.80;6.70;;;;;;;-0.94;100.00;97385.28;4207905;34;20047;-72
2022/12/12 08:19:50;;;;;;;11.57;5.85;;;;;;;-0.84;100.00;97401.47;4223059;33;20187;-78
2022/12/12 08:22:16;;;;;;;11.35;6.50;;;;;;;-1.17;100.00;97375.31;4234242;33;20089;-79
2022/12/12 08:24:43;;;;;;;12.45;6.68;;;;;;;-1.08;100.00;97370.56;4235325;33;20378;-77
2022/12/12 08:27:10;;;;;;;11.18;5.60;;;;;;;-1.00;100.00;97376.38;4216271;34;20039;-77
2022/12/12 08:29:36;;;;;;;17.90;7.05;;;;;;;-0.97;100.00;97380.44;4215655;33;20057;-76
2022/12/12 08:32:03;;;;;;;10.80;6.28;;;;;;;-0.65;100.00;97414.72;4183972;34;20067;-78
2022/12/12 08:34:29;;;;;;;13.15;6.87;;;;;;;-0.84;100.00;97406.75;4195075;34;20087;-78
2022/12/12 08:36:56;;;;;;;15.40;6.80;;;;;;;-0.80;100.00;97410.59;4207334;34;20075;-78
2022/12/12 08:39:23;;;;;;;15.00;6.90;;;;;;;-0.69;100.00;97418.81;4207012;34;20042;-78
2022/12/12 08:41:50;;;;;;;15.90;5.95;;;;;;;-0.73;100.00;97413.97;4206997;34;20110;-76
2022/12/12 08:44:19;;;;;;;10.25;6.12;;;;;;;-0.61;100.00;97429.12;4205725;34;20442;-77
2022/12/12 08:46:46;;;;;;;9.35;5.22;;;;;;;-0.64;100.00;97427.72;4192699;34;20065;-77
2022/12/12 08:49:13;;;;;;;15.95;6.95;;;;;;;-0.81;100.00;97422.16;4191503;34;20045;-78
2022/12/12 08:51:40;;;;;;;17.45;8.40;;;;;;;-0.76;100.00;97427.63;4189419;34;20106;-78
2022/12/12 08:54:08;;;;;;;13.38;7.03;;;;;;;-0.71;100.00;97411.09;4168853;34;20772;-77
2022/12/12 08:56:35;;;;;;;22.92;7.40;;;;;;;-0.55;100.00;97425.59;4173204;34;20048;-77
2022/12/12 08:59:01;;;;;;;14.87;7.30;;;;;;;-0.64;100.00;97440.13;4187724;34;20434;-78
2022/12/12 09:01:28;;;;;;;12.32;6.18;;;;;;;-0.62;100.00;97430.16;4184104;34;20122;-78
2022/12/12 09:03:56;;;;;;;15.55;6.55;;;;;;;-0.63;100.00;97433.81;4179977;34;20035;-79
2022/12/12 09:06:23;;;;;;;14.40;7.30;;;;;;;-0.42;100.00;97420.19;4187545;34;20043;-77
2022/12/12 09:08:51;;;;;;;11.95;5.68;;;;;;;-0.55;100.00;97438.81;4191499;34;20779;-79
2022/12/12 09:11:18;;;;;;;15.25;6.68;;;;;;;-0.95;100.00;97383.66;4188739;34;20046;-80
2022/12/12 09:13:44;;;;;;;11.63;6.03;;;;;;;-0.58;100.00;97426.84;4192379;34;20035;-80
2022/12/12 09:16:11;;;;;;;13.90;7.78;;;;;;;-0.59;100.00;97419.13;4180483;34;20028;-80
2022/12/12 09:18:39;;;;;;;15.77;6.10;;;;;;;-0.57;100.00;97411.81;4173574;34;20032;-77
2022/12/12 09:21:06;;;;;;;15.68;6.03;;;;;;;-0.44;100.00;97416.16;4181088;34;20068;-78
2022/12/12 09:23:33;;;;;;;19.00;7.18;;;;;;;-0.49;100.00;97419.44;4162781;34;20073;-78
2022/12/12 09:26:08;;;;;;;17.50;7.10;;;;;;;-0.46;100.00;97412.91;4190724;34;20081;-78
2022/12/12 09:28:35;;;;;;;11.20;5.57;;;;;;;-0.22;100.00;97416.56;4194122;34;20339;-78
2022/12/12 09:31:06;;;;;;;12.20;5.82;;;;;;;-0.59;100.00;97395.34;4195252;34;20046;-79
2022/12/12 09:33:32;;;;;;;9.82;6.20;;;;;;;-0.32;100.00;97432.09;4193094;34;20099;-79
2022/12/12 09:36:03;;;;;;;11.18;5.70;;;;;;;-0.54;100.00;97411.38;4193195;34;20066;-79
2022/12/12 09:38:30;;;;;;;16.58;5.18;;;;;;;-0.46;100.00;97424.31;4194660;34;20095;-77
2022/12/12 09:41:13;;;;;;;16.12;6.12;;;;;;;-0.44;100.00;97410.88;4191926;34;20055;-77
2022/12/12 09:43:46;;;;;;;16.45;7.00;;;;;;;-0.37;100.00;97412.44;4180313;34;20116;-77
2022/12/12 09:46:39;;;;;;;10.57;5.28;;;;;;;-0.41;100.00;97394.56;4181750;34;20043;-77
2022/12/12 09:49:24;;;;;;;8.68;4.75;;;;;;;-0.52;100.00;97398.72;4183762;34;20032;-78
2022/12/12 09:51:51;;;;;;;5.03;3.80;;;;;;;-0.51;100.00;97423.34;4199433;34;20178;-77
2022/12/12 09:54:21;;;;;;;10.50;4.93;;;;;;;-0.55;100.00;97422.97;4192935;34;20508;-78
2022/12/12 09:57:28;;;;;;;12.73;5.85;;;;;;;-0.35;100.00;97419.31;4192833;34;20757;-79
2022/12/12 09:59:59;;;;;;;17.60;5.57;;;;;;;-0.12;100.00;97418.69;4194894;34;20071;-79
2022/12/12 10:02:32;;;;;;;11.38;5.15;;;;;;;-0.14;100.00;97426.84;4195252;34;20039;-78
2022/12/12 10:05:03;;;;;;;13.60;5.10;;;;;;;-0.25;100.00;97403.75;4181951;34;20071;-79
2022/12/12 10:08:05;;;;;;;18.20;4.50;;;;;;;-0.25;100.00;97420.44;4177858;34;20063;-78
2022/12/12 10:10:38;;;;;;;8.53;5.23;;;;;;;0.01;100.00;97429.09;4176961;34;20089;-77
2022/12/12 10:13:13;;;;;;;11.18;4.47;;;;;;;-0.16;100.00;97434.19;4176914;34;20165;-80
2022/12/12 10:16:02;;;;;;;7.87;4.55;;;;;;;0.06;100.00;97425.81;4192674;34;20351;-78
2022/12/12 10:18:39;;;;;;;11.82;4.62;;;;;;;0.01;100.00;97420.38;4188049;34;20090;-77
2022/12/12 10:21:13;;;;;;;7.70;4.60;;;;;;;0.12;100.00;97419.63;4192053;34;20047;-78
2022/12/12 10:23:53;;;;;;;9.38;5.35;;;;;;;0.04;100.00;97430.50;4190507;34;20060;-79
2022/12/12 10:26:24;;;;;;;7.87;4.70;;;;;;;0.29;100.00;97428.59;4217707;34;20070;-78
2022/12/12 10:29:09;;;;;;;11.10;6.00;;;;;;;0.17;100.00;97443.59;4223263;34;20103;-74
2022/12/12 10:31:48;;;;;;;7.90;4.97;;;;;;;0.29;100.00;97425.94;4218574;34;20456;-74
2022/12/12 10:34:37;;;;;;;10.23;5.53;;;;;;;0.18;100.00;97431.97;4221285;34;20042;-74
2022/12/12 10:37:21;;;;;;;9.10;5.00;;;;;;;0.44;100.00;97424.72;4235662;33;20165;-73
2022/12/12 10:39:59;;;;;;;10.30;5.07;;;;;;;0.36;100.00;97426.66;4236807;33;20058;-74
2022/12/12 10:42:36;;;;;;;10.77;5.03;;;;;;;0.59;100.00;97430.44;4237399;33;20076;-74
2022/12/12 10:45:21;;;;;;;7.78;4.78;;;;;;;0.72;100.00;97435.56;4234525;33;20068;-73
2022/12/12 10:47:48;;;;;;;7.47;4.03;;;;;;;0.78;100.00;97427.72;4237777;33;20042;-74
2022/12/12 10:50:32;;;;;;;8.18;4.97;;;;;;;0.65;100.00;97424.22;4238271;33;20042;-74
2022/12/12 10:53:00;;;;;;;10.80;4.50;;;;;;;0.86;100.00;97414.16;4237340;33;20469;-74
2022/12/12 10:55:53;;;;;;;9.27;4.35;;;;;;;0.80;100.00;97409.75;4222710;33;20035;-73
2022/12/12 10:58:26;;;;;;;17.90;5.68;;;;;;;0.96;100.00;97419.72;4215438;34;20081;-74
2022/12/12 11:01:02;;;;;;;10.05;5.32;;;;;;;0.89;100.00;97440.19;4215829;34;20058;-74
2022/12/12 11:03:37;;;;;;;8.43;5.18;;;;;;;0.74;100.00;97437.19;4222455;34;20055;-75
2022/12/12 11:06:09;;;;;;;15.07;5.30;;;;;;;0.63;100.00;97431.59;4222210;34;20461;-75
2022/12/12 11:08:36;;;;;;;11.43;6.93;;;;;;;0.72;100.00;97440.84;4217627;33;20068;-74
2022/12/12 11:11:02;;;;;;;8.88;5.28;;;;;;;-0.06;100.00;97397.44;4212647;33;20155;-74
2022/12/12 11:13:30;;;;;;;8.77;4.75;;;;;;;0.51;100.00;97428.09;4223099;33;20078;-74
2022/12/12 11:16:07;;;;;;;25.35;7.93;;;;;;;0.30;100.00;97405.56;4227208;33;20049;-73
2022/12/12 11:18:34;;;;;;;11.38;5.93;;;;;;;0.51;100.00;97433.37;4237031;33;20403;-73
2022/12/12 11:21:11;;;;;;;10.75;5.70;;;;;;;0.24;100.00;97430.25;4222151;34;20058;-74
2022/12/12 11:23:43;;;;;;;22.48;7.60;;;;;;;0.51;100.00;97428.91;4220915;33;20586;-73
2022/12/12 11:26:14;;;;;;;16.55;6.25;;;;;;;0.60;100.00;97416.16;4223794;34;20072;-74
2022/12/12 11:28:45;;;;;;;20.88;7.43;;;;;;;0.62;100.00;97427.31;4223514;34;20022;-73
2022/12/12 11:31:18;;;;;;;10.85;4.85;;;;;;;0.68;100.00;97429.06;4209284;34;20032;-73
2022/12/12 11:33:47;;;;;;;;;;;;;;;0.57;100.00;97421.09;4209511;34;20086;-72
2022/12/12 11:36:17;;;;;;;9.02;4.97;;;;;;;0.52;100.00;97429.72;4198753;34;19957;-74
2022/12/12 11:38:53;;;;;;;9.02;5.68;;;;;;;0.31;100.00;97386.78;4209242;34;20035;-74
2022/12/12 11:41:21;;;;;;;9.43;4.93;;;;;;;0.27;100.00;97428.00;4206701;34;20047;-74
2022/12/12 11:43:47;;;;;;;8.52;4.03;;;;;;;-0.12;100.00;97414.19;4209448;34;20134;-75
2022/12/12 11:46:13;;;;;;;9.98;4.82;;;;;;;-0.15;100.00;97406.69;4209160;34;20036;-75
2022/12/12 11:49:00;;;;;;;13.77;5.40;;;;;;;-0.01;100.00;97437.25;4207231;34;20094;-74
2022/12/12 11:51:40;;;;;;;8.05;5.32;;;;;;;0.22;100.00;97430.50;4206057;34;20053;-74
2022/12/12 11:54:28;;;;;;;5.62;4.85;;;;;;;0.42;100.00;97434.75;4209022;34;20055;-75
2022/12/12 11:57:11;;;;;;;6.68;4.45;;;;;;;0.44;100.00;97440.63;4205907;34;20078;-75
2022/12/12 12:03:25;;;;;;;11.25;5.55;;;;;;;0.68;100.00;97434.38;4035214;31;20445;-75
2022/12/12 12:05:56;;;;;;;10.18;5.05;;;;;;;0.69;100.00;97436.00;4218637;34;20439;-74
2022/12/12 12:08:59;;;;;;;9.98;5.50;;;;;;;0.59;100.00;97443.69;4223040;34;20051;-77
2022/12/12 12:12:00;;;;;;;6.97;5.10;;;;;;;0.45;100.00;97434.31;4213517;34;20028;-75
2022/12/12 12:14:46;;;;;;;6.35;4.30;;;;;;;0.69;100.00;97441.31;4223159;34;20120;-76
2022/12/12 12:17:40;;;;;;;8.93;5.07;;;;;;;0.55;100.00;97434.56;4222646;34;20060;-75
2022/12/12 12:20:38;;;;;;;7.53;5.43;;;;;;;0.54;100.00;97448.84;4211181;34;20055;-75
2022/12/12 12:23:36;;;;;;;14.32;5.70;;;;;;;0.70;100.00;97442.94;4237491;33;20031;-74
2022/12/12 12:26:18;;;;;;;10.70;4.70;;;;;;;0.74;100.00;97453.06;4252144;33;20054;-75
2022/12/12 12:29:08;;;;;;;7.93;4.80;;;;;;;0.68;100.00;97447.63;4238056;33;20046;-75
2022/12/12 12:32:23;;;;;;;10.68;4.45;;;;;;;0.59;100.00;97456.94;4236830;33;20035;-75
2022/12/12 12:35:12;;;;;;;12.95;6.22;;;;;;;0.38;100.00;97454.75;4227328;33;20048;-75
2022/12/12 12:38:06;;;;;;;7.55;4.07;;;;;;;0.50;100.00;97437.09;4239561;33;20027;-74
2022/12/12 12:41:09;;;;;;;11.20;5.03;;;;;;;0.56;100.00;97456.56;4239170;33;20056;-75
2022/12/12 12:43:52;;;;;;;12.43;5.25;;;;;;;0.46;100.00;97442.03;4240616;33;20419;-75
2022/12/12 12:47:00;;;;;;;11.65;4.53;;;;;;;0.53;100.00;97447.22;4237982;33;20064;-74
2022/12/12 12:49:42;;;;;;;11.50;5.18;;;;;;;0.51;100.00;97434.22;4206513;34;20433;-74
2022/12/12 12:52:23;;;;;;;10.52;4.45;;;;;;;0.57;100.00;97448.37;4210099;34;20105;-80
2022/12/12 12:55:03;;;;;;;9.38;4.47;;;;;;;0.70;100.00;97453.53;4210447;34;20438;-79
2022/12/12 12:57:51;;;;;;;9.02;5.62;;;;;;;0.43;100.00;97444.28;4209703;34;20055;-79
2022/12/12 13:00:27;;;;;;;5.95;4.40;;;;;;;0.47;100.00;97458.72;4225785;33;20046;-80
2022/12/12 13:03:12;;;;;;;9.77;4.95;;;;;;;0.54;100.00;97454.13;4237367;33;20067;-80
2022/12/12 13:05:53;;;;;;;13.13;6.35;;;;;;;0.40;100.00;97463.28;4231018;33;20105;-82
2022/12/12 13:08:43;;;;;;;9.77;4.75;;;;;;;0.39;100.00;97466.97;4238198;33;20038;-81
2022/12/12 13:11:37;;;;;;;9.27;4.87;;;;;;;0.62;100.00;97456.47;4222724;34;20073;-80
2022/12/12 13:14:51;;;;;;;6.82;5.18;;;;;;;0.51;100.00;97465.16;4237300;33;20084;-82
2022/12/12 13:17:34;;;;;;;8.85;5.15;;;;;;;0.48;100.00;97433.81;4198764;34;20108;-81
2022/12/12 13:20:08;;;;;;;13.68;5.12;;;;;;;0.56;100.00;97475.91;4176765;34;20118;-80
2022/12/12 13:23:09;;;;;;;9.70;5.30;;;;;;;0.52;100.00;97483.47;4197047;34;20040;-81
2022/12/12 13:25:49;;;;;;;8.40;4.60;;;;;;;0.46;100.00;97468.50;4184561;34;20048;-79
2022/12/12 13:28:24;;;;;;;8.48;4.18;;;;;;;0.44;100.00;97485.63;4202277;34;20047;-81
2022/12/12 13:31:21;;;;;;;12.23;5.03;;;;;;;0.41;100.00;97470.19;4198436;34;20048;-80
2022/12/12 13:33:54;;;;;;;11.10;4.72;;;;;;;0.41;100.00;97470.19;4202273;34;20028;-79
2022/12/12 13:36:30;;;;;;;11.57;4.32;;;;;;;0.34;100.00;97492.25;4188831;34;20187;-79
2022/12/12 13:38:59;;;;;;;8.43;5.68;;;;;;;0.39;100.00;97488.16;4188745;34;20040;-81
2022/12/12 13:41:26;;;;;;;9.13;4.62;;;;;;;0.13;100.00;97453.00;4206309;34;20035;-80
2022/12/12 13:43:58;;;;;;;17.62;5.85;;;;;;;0.22;100.00;97488.72;4209481;34;20035;-79
2022/12/12 13:46:27;;;;;;;9.30;4.07;;;;;;;0.09;100.00;97465.84;4208685;34;20039;-80
2022/12/12 13:49:14;;;;;;;7.40;4.35;;;;;;;-0.04;100.00;97498.56;4208859;34;20472;-80
2022/12/12 13:51:43;;;;;;;20.45;5.78;;;;;;;0.27;100.00;97496.00;4208871;34;20046;-80
2022/12/12 13:54:10;;;;;;;7.60;4.50;;;;;;;0.20;100.00;97501.37;4229263;33;20042;-79
2022/12/12 13:57:09;;;;;;;15.85;5.10;;;;;;;0.01;100.00;97503.22;4251022;33;20136;-80
2022/12/12 13:59:56;;;;;;;7.18;3.90;;;;;;;0.30;100.00;97504.34;4251680;33;20107;-77
2022/12/12 14:02:31;;;;;;;10.70;4.05;;;;;;;0.40;100.00;97508.28;4246613;33;20042;-84
2022/12/12 14:05:22;;;;;;;6.00;4.18;;;;;;;0.14;100.00;97466.03;4251866;33;20104;-77
2022/12/12 14:08:10;;;;;;;8.10;4.32;;;;;;;0.29;100.00;97500.06;4260647;33;20057;-80
2022/12/12 14:10:49;;;;;;;9.02;4.68;;;;;;;0.21;100.00;97513.59;4259175;33;20436;-79
2022/12/12 14:13:21;;;;;;;10.63;6.35;;;;;;;-0.04;100.00;97485.34;4248913;33;20057;-80